Time;durP1;ratioP1;P1;durP2;ratioP2;P2;SDS_P1;SDS_P2;PMS_P1;PMS_P2;Temp;Humidity;BMP_temperature;BMP_pressure;BME280_temperature;BME280_humidity;BME280_pressure;Samples;Min_cycle;Max_cycle;Signal;HPM_P1;HPM_P2
2022/10/17 00:02:22;;;;;;;6.40;3.58;;;;;;;6.67;86.44;95941.78;5076648;28;20233;-72
2022/10/17 00:04:49;;;;;;;4.90;3.25;;;;;;;6.71;86.31;95942.84;5110061;28;20257;-71
2022/10/17 00:07:16;;;;;;;6.28;2.90;;;;;;;6.58;86.46;95946.09;5110266;28;20285;-72
2022/10/17 00:09:43;;;;;;;7.47;3.83;;;;;;;6.57;86.60;95939.91;5110339;28;20282;-71
2022/10/17 00:12:10;;;;;;;5.57;2.95;;;;;;;6.49;86.94;95948.53;5111276;28;20217;-72
2022/10/17 00:14:38;;;;;;;7.40;3.30;;;;;;;6.39;87.47;95943.94;5106760;28;20206;-72
2022/10/17 00:17:05;;;;;;;8.13;3.38;;;;;;;6.32;87.70;95951.47;5099877;28;20259;-71
2022/10/17 00:19:32;;;;;;;8.10;3.40;;;;;;;6.36;87.69;95949.88;5109874;28;20721;-71
2022/10/17 00:21:59;;;;;;;5.78;3.58;;;;;;;6.33;87.67;95947.69;5109591;28;20254;-71
2022/10/17 00:24:25;;;;;;;7.20;3.20;;;;;;;6.33;87.98;95952.28;5095708;28;20225;-71
2022/10/17 00:26:52;;;;;;;7.85;3.90;;;;;;;6.40;87.99;95948.25;5110262;28;20202;-71
2022/10/17 00:29:19;;;;;;;4.80;3.00;;;;;;;6.49;87.16;95947.72;5106873;28;20206;-71
2022/10/17 00:31:47;;;;;;;3.47;2.47;;;;;;;6.39;87.32;95948.53;5083276;28;20565;-71
2022/10/17 00:34:14;;;;;;;8.38;3.22;;;;;;;6.27;88.04;95951.47;5107581;28;20248;-71
2022/10/17 00:36:40;;;;;;;8.00;3.13;;;;;;;6.31;88.34;95947.16;5110051;28;20224;-71
2022/10/17 00:39:07;;;;;;;4.63;3.22;;;;;;;6.30;88.82;95945.53;5088928;28;20536;-71
2022/10/17 00:41:34;;;;;;;6.88;2.95;;;;;;;6.32;88.74;95954.16;5099566;28;20213;-71
2022/10/17 00:44:04;;;;;;;4.28;2.80;;;;;;;6.33;88.49;95955.78;5109591;28;20224;-71
2022/10/17 00:46:32;;;;;;;4.53;3.20;;;;;;;6.32;88.01;95958.72;5110086;28;20202;-71
2022/10/17 00:49:04;;;;;;;10.73;6.30;;;;;;;6.28;87.88;95958.47;5109932;28;20648;-71
2022/10/17 00:51:36;;;;;;;10.10;5.63;;;;;;;6.22;87.36;95962.22;5109782;28;20205;-71
2022/10/17 00:54:03;;;;;;;9.65;5.30;;;;;;;6.17;87.22;95956.81;5109908;28;20682;-71
2022/10/17 00:56:31;;;;;;;9.85;6.25;;;;;;;6.12;87.27;95962.22;5108992;28;20656;-71
2022/10/17 00:58:58;;;;;;;8.93;5.63;;;;;;;5.98;87.28;95956.53;5108848;28;20260;-71
2022/10/17 01:01:24;;;;;;;9.35;5.65;;;;;;;5.96;87.85;95965.94;5109205;28;20254;-71
2022/10/17 01:03:51;;;;;;;8.70;5.03;;;;;;;5.96;87.67;95960.56;5109539;28;20233;-71
2022/10/17 01:06:19;;;;;;;10.10;5.60;;;;;;;5.69;87.31;95964.22;5109519;28;20285;-71
2022/10/17 01:08:46;;;;;;;9.63;5.88;;;;;;;5.79;88.99;95965.31;5110183;28;20306;-71
2022/10/17 01:11:30;;;;;;;8.32;5.53;;;;;;;5.70;89.34;95962.34;5109961;28;20233;-71
2022/10/17 01:14:05;;;;;;;6.85;5.30;;;;;;;5.74;89.51;95963.41;5099839;28;20258;-71
2022/10/17 01:16:43;;;;;;;10.55;5.85;;;;;;;5.76;89.21;95965.84;5093254;28;20549;-71
2022/10/17 01:19:35;;;;;;;11.20;6.28;;;;;;;5.81;89.51;95953.22;5109389;28;20198;-71
2022/10/17 01:22:09;;;;;;;9.38;6.25;;;;;;;5.72;90.07;95955.63;5101330;28;20733;-71
2022/10/17 01:24:50;;;;;;;4.07;2.95;;;;;;;5.77;89.87;95954.81;5094150;28;20217;-71
2022/10/17 01:27:56;;;;;;;4.00;2.47;;;;;;;5.86;89.63;95957.81;5109155;28;20232;-71
2022/10/17 01:30:47;;;;;;;4.20;2.28;;;;;;;5.85;89.71;95964.28;5104471;28;20242;-71
2022/10/17 01:33:21;;;;;;;4.20;2.85;;;;;;;5.91;89.36;95957.84;5109363;28;20617;-71
2022/10/17 01:35:53;;;;;;;9.45;2.45;;;;;;;5.76;89.01;95955.09;5108649;28;20241;-71
2022/10/17 01:38:23;;;;;;;7.15;5.40;;;;;;;5.97;88.44;95959.50;5109987;28;20559;-71
2022/10/17 01:40:56;;;;;;;4.68;2.17;;;;;;;5.90;88.10;95951.66;5109672;28;20206;-71
2022/10/17 01:43:29;;;;;;;6.90;4.97;;;;;;;5.99;87.68;95965.41;5109632;28;20730;-71
2022/10/17 01:46:01;;;;;;;7.45;4.90;;;;;;;5.90;88.28;95967.00;5109049;28;20205;-71
2022/10/17 01:48:34;;;;;;;8.02;5.03;;;;;;;5.74;88.35;95962.63;5109519;28;20237;-71
2022/10/17 01:51:06;;;;;;;8.88;5.45;;;;;;;5.68;88.91;95967.97;5109613;28;20197;-71
2022/10/17 01:53:36;;;;;;;10.43;5.13;;;;;;;5.70;88.88;95968.53;5109326;28;20205;-71
2022/10/17 01:56:07;;;;;;;8.32;5.15;;;;;;;5.62;89.11;95977.09;5109338;28;20234;-71
2022/10/17 01:58:40;;;;;;;7.70;4.82;;;;;;;5.55;89.48;95976.53;5109729;28;20262;-71
2022/10/17 02:01:09;;;;;;;7.20;5.10;;;;;;;5.48;89.93;95975.94;5109353;28;20282;-71
2022/10/17 02:03:39;;;;;;;8.05;4.88;;;;;;;5.37;90.58;95968.91;5108967;28;20286;-71
2022/10/17 02:06:06;;;;;;;3.75;2.95;;;;;;;5.32;90.84;95982.34;5109201;28;20197;-71
2022/10/17 02:08:42;;;;;;;4.53;2.25;;;;;;;5.39;90.84;95982.09;5109714;28;20434;-71
2022/10/17 02:11:14;;;;;;;3.88;2.70;;;;;;;5.45;90.70;95979.19;5113396;28;20267;-71
2022/10/17 02:13:55;;;;;;;4.38;1.90;;;;;;;5.48;90.37;95981.31;5113613;28;20202;-71
2022/10/17 02:16:33;;;;;;;3.97;2.50;;;;;;;5.35;90.63;95981.78;5099026;28;20247;-71
2022/10/17 02:19:27;;;;;;;3.47;2.40;;;;;;;5.32;91.05;95987.72;5112866;28;20269;-71
2022/10/17 02:22:04;;;;;;;5.50;2.50;;;;;;;5.36;91.05;95978.03;5100083;28;20225;-71
2022/10/17 02:24:37;;;;;;;7.38;4.95;;;;;;;5.41;90.80;95975.38;5110090;28;20493;-71
2022/10/17 02:27:08;;;;;;;6.47;2.40;;;;;;;5.30;90.76;95979.09;5112480;28;20541;-71
2022/10/17 02:29:42;;;;;;;2.95;2.10;;;;;;;5.37;91.03;95990.41;5113015;28;20286;-71
2022/10/17 02:32:16;;;;;;;3.33;1.67;;;;;;;5.31;90.86;95988.78;5112971;28;20202;-71
2022/10/17 02:34:48;;;;;;;3.88;2.60;;;;;;;5.41;90.42;95990.69;5112516;28;20296;-71
2022/10/17 02:37:19;;;;;;;4.45;2.42;;;;;;;5.47;89.88;95995.81;5112519;28;20595;-71
2022/10/17 02:39:47;;;;;;;3.40;2.28;;;;;;;5.45;89.57;95995.31;5112700;28;20697;-71
2022/10/17 02:42:15;;;;;;;4.00;2.75;;;;;;;5.42;89.67;96003.88;5112422;28;20725;-71
2022/10/17 02:44:44;;;;;;;6.20;3.25;;;;;;;5.38;89.77;95993.91;5112844;28;20623;-71
2022/10/17 02:47:17;;;;;;;4.82;2.55;;;;;;;5.38;89.09;95997.41;5112564;28;20206;-72
2022/10/17 02:49:51;;;;;;;4.70;2.85;;;;;;;5.36;88.97;96004.91;5112021;28;20558;-71
2022/10/17 02:52:25;;;;;;;4.63;2.70;;;;;;;5.30;89.43;96008.66;5112296;28;20281;-72
2022/10/17 02:54:57;;;;;;;9.52;5.18;;;;;;;5.27;89.71;96022.59;5111886;28;20655;-71
2022/10/17 02:57:30;;;;;;;8.48;5.05;;;;;;;5.33;89.51;96019.66;5104115;28;20225;-71
2022/10/17 03:00:00;;;;;;;2.63;2.10;;;;;;;5.18;89.26;96008.84;5092082;28;20726;-72
2022/10/17 03:02:28;;;;;;;5.05;2.85;;;;;;;5.24;89.68;96015.06;5112133;28;20234;-71
2022/10/17 03:04:56;;;;;;;3.67;2.47;;;;;;;5.25;89.42;96022.03;5112161;28;20637;-71
2022/10/17 03:07:23;;;;;;;5.10;2.65;;;;;;;5.21;89.18;96027.13;5112255;28;20559;-71
2022/10/17 03:09:49;;;;;;;4.35;2.88;;;;;;;5.09;89.04;96025.69;5112081;28;20233;-71
2022/10/17 03:12:16;;;;;;;4.30;2.47;;;;;;;5.10;89.35;96025.44;5111803;28;20233;-71
2022/10/17 03:14:43;;;;;;;3.70;2.75;;;;;;;5.08;89.98;96029.44;5108531;28;20332;-71
2022/10/17 03:17:09;;;;;;;3.33;2.55;;;;;;;5.14;90.04;96026.56;5101135;28;20255;-72
2022/10/17 03:19:36;;;;;;;5.53;2.80;;;;;;;5.17;90.23;96028.72;5111447;28;20297;-72
2022/10/17 03:22:04;;;;;;;7.20;2.53;;;;;;;5.00;90.16;96026.19;5103500;28;20327;-71
2022/10/17 03:24:31;;;;;;;4.95;2.25;;;;;;;4.97;90.32;96034.75;5094994;28;20634;-71
2022/10/17 03:26:57;;;;;;;5.50;2.45;;;;;;;4.98;90.77;96027.50;5111395;28;20266;-71
2022/10/17 03:29:24;;;;;;;3.78;2.88;;;;;;;5.02;90.74;96027.81;5107076;28;20294;-71
2022/10/17 03:31:51;;;;;;;6.65;3.90;;;;;;;4.89;90.29;96031.75;5084792;28;20641;-71
2022/10/17 03:34:17;;;;;;;8.00;2.75;;;;;;;5.09;90.08;96036.44;5109165;28;20205;-71
2022/10/17 03:36:44;;;;;;;3.78;3.08;;;;;;;4.92;90.13;96036.59;5111146;28;20233;-71
2022/10/17 03:39:12;;;;;;;6.45;3.45;;;;;;;4.88;91.10;96030.94;5111643;28;20582;-71
2022/10/17 03:41:39;;;;;;;6.88;3.75;;;;;;;4.93;91.78;96028.25;5111008;28;20611;-71
2022/10/17 03:44:06;;;;;;;5.15;3.40;;;;;;;5.09;91.71;96025.69;5106145;28;20355;-71
2022/10/17 03:46:32;;;;;;;3.45;2.42;;;;;;;5.00;90.53;96026.19;5088968;28;20203;-71
2022/10/17 03:48:59;;;;;;;5.75;3.17;;;;;;;5.03;90.74;96038.28;5104254;28;20238;-70
2022/10/17 03:51:26;;;;;;;4.88;3.08;;;;;;;4.98;91.46;96036.38;5088132;28;20560;-72
2022/10/17 03:53:53;;;;;;;4.15;3.03;;;;;;;5.05;91.16;96046.91;5109693;28;20235;-71
2022/10/17 03:56:23;;;;;;;3.17;2.65;;;;;;;5.12;91.15;96038.63;5110724;28;20263;-72
2022/10/17 03:58:50;;;;;;;5.55;2.95;;;;;;;5.22;91.06;96046.72;5110596;28;20342;-71
2022/10/17 04:01:18;;;;;;;3.50;2.38;;;;;;;5.15;90.48;96046.16;5110041;28;20264;-73
2022/10/17 04:03:49;;;;;;;4.10;2.67;;;;;;;5.12;90.92;96046.66;5109775;28;20249;-71
2022/10/17 04:06:16;;;;;;;4.75;2.58;;;;;;;5.08;90.37;96040.19;5110246;27;20212;-72
2022/10/17 04:08:42;;;;;;;4.18;2.95;;;;;;;5.14;90.11;96047.22;5110578;27;20237;-71
2022/10/17 04:11:13;;;;;;;8.32;2.78;;;;;;;4.98;90.18;96046.31;5106498;28;20190;-72
2022/10/17 04:13:41;;;;;;;5.35;2.80;;;;;;;4.96;90.54;96049.25;5078618;28;20191;-72
2022/10/17 04:16:12;;;;;;;5.35;2.83;;;;;;;4.92;90.34;96052.72;5085718;28;20252;-71
2022/10/17 04:18:38;;;;;;;6.45;3.25;;;;;;;4.82;89.89;96055.28;5085187;28;20636;-72
2022/10/17 04:21:06;;;;;;;4.63;2.40;;;;;;;4.73;90.64;96054.97;5086547;28;20711;-71
2022/10/17 04:23:33;;;;;;;4.43;2.17;;;;;;;4.81;90.56;96057.16;5087467;28;20210;-71
2022/10/17 04:26:02;;;;;;;6.68;3.15;;;;;;;4.87;90.30;96056.16;5081975;28;20210;-71
2022/10/17 04:28:29;;;;;;;4.95;2.70;;;;;;;4.85;90.52;96057.47;5090146;28;20249;-71
2022/10/17 04:30:59;;;;;;;4.72;2.97;;;;;;;4.84;90.72;96059.34;5089398;28;20278;-71
2022/10/17 04:33:26;;;;;;;6.45;2.70;;;;;;;4.85;90.80;96060.16;5109828;28;20821;-72
2022/10/17 04:35:57;;;;;;;9.63;4.60;;;;;;;4.89;90.70;96053.22;5109554;28;20258;-71
2022/10/17 04:38:24;;;;;;;5.82;3.20;;;;;;;4.91;90.81;96061.84;5110420;28;20241;-71
2022/10/17 04:40:51;;;;;;;4.18;2.85;;;;;;;4.92;90.87;96058.88;5110212;28;20937;-71
2022/10/17 04:43:17;;;;;;;9.88;6.55;;;;;;;4.97;90.25;96066.97;5109992;28;20274;-71
2022/10/17 04:45:44;;;;;;;9.95;6.22;;;;;;;4.87;89.89;96066.91;5110463;28;20258;-71
2022/10/17 04:48:12;;;;;;;9.40;5.88;;;;;;;4.86;90.21;96059.91;5110315;28;20225;-71
2022/10/17 04:50:39;;;;;;;11.55;6.78;;;;;;;4.86;90.21;96067.97;5110224;28;20255;-71
2022/10/17 04:53:06;;;;;;;11.80;6.85;;;;;;;4.85;90.40;96068.22;5109442;28;20201;-71
2022/10/17 04:55:37;;;;;;;12.63;6.72;;;;;;;4.91;90.75;96076.06;5110403;28;20262;-71
2022/10/17 04:58:04;;;;;;;11.18;7.68;;;;;;;4.97;90.67;96071.53;5110391;28;20198;-71
2022/10/17 05:00:30;;;;;;;11.35;6.97;;;;;;;5.10;90.78;96076.47;5109348;28;20601;-71
2022/10/17 05:02:57;;;;;;;11.80;7.60;;;;;;;5.97;92.09;96083.22;5109380;28;20237;-70
2022/10/17 05:05:25;;;;;;;12.00;7.65;;;;;;;7.13;89.84;96066.47;5109590;28;20202;-71
2022/10/17 05:07:52;;;;;;;10.70;6.60;;;;;;;8.28;84.25;96052.97;5108927;28;20209;-72
2022/10/17 05:10:19;;;;;;;5.53;4.07;;;;;;;9.42;79.32;96063.53;5102492;28;20717;-72
2022/10/17 05:12:47;;;;;;;5.97;3.33;;;;;;;10.42;74.23;96065.41;5088737;28;20202;-71
2022/10/17 05:15:13;;;;;;;6.72;4.00;;;;;;;11.27;69.56;96057.91;5101605;28;20244;-72
2022/10/17 05:17:40;;;;;;;10.10;3.95;;;;;;;12.13;64.74;96054.78;5104442;28;20232;-72
2022/10/17 05:20:08;;;;;;;7.40;3.88;;;;;;;12.80;62.17;96053.06;5109900;28;20625;-72
2022/10/17 05:22:36;;;;;;;10.45;3.95;;;;;;;13.46;59.22;96055.06;5097521;28;20267;-71
2022/10/17 05:25:03;;;;;;;7.85;4.03;;;;;;;13.83;57.91;96058.47;5096597;28;20205;-72
2022/10/17 05:27:30;;;;;;;12.10;4.82;;;;;;;13.72;59.17;96065.28;5109454;28;20201;-70
2022/10/17 05:29:57;;;;;;;5.93;3.85;;;;;;;14.13;58.41;96065.81;5109074;28;20815;-70
2022/10/17 05:32:24;;;;;;;7.03;3.95;;;;;;;14.42;57.72;96064.50;5109299;28;20210;-70
2022/10/17 05:34:50;;;;;;;26.00;5.82;;;;;;;14.85;55.68;96062.69;5109694;28;20237;-72
2022/10/17 05:37:17;;;;;;;16.77;4.63;;;;;;;14.99;56.49;96062.53;5109294;28;20620;-72
2022/10/17 05:39:45;;;;;;;9.63;4.57;;;;;;;14.70;56.72;96065.88;5110191;28;20209;-72
2022/10/17 05:42:12;;;;;;;9.63;4.93;;;;;;;14.88;55.71;96066.69;5109623;28;20270;-72
2022/10/17 05:44:40;;;;;;;10.95;4.97;;;;;;;15.02;55.11;96061.91;5112238;28;20198;-72
2022/10/17 05:47:07;;;;;;;15.20;6.45;;;;;;;15.21;54.06;96064.28;5113300;28;20556;-72
2022/10/17 05:49:34;;;;;;;6.20;4.03;;;;;;;15.82;53.54;96062.31;5113787;28;20286;-70
2022/10/17 05:52:00;;;;;;;12.25;5.40;;;;;;;15.90;52.82;96069.69;5113613;28;20740;-72
2022/10/17 05:54:27;;;;;;;10.82;6.95;;;;;;;15.73;53.02;96069.72;5113365;27;20258;-70
2022/10/17 05:56:56;;;;;;;9.45;5.18;;;;;;;15.73;53.92;96072.44;5113938;28;20250;-70
2022/10/17 05:59:25;;;;;;;7.88;4.13;;;;;;;15.73;51.24;96069.72;5113059;28;20737;-71
2022/10/17 06:01:52;;;;;;;9.63;4.90;;;;;;;15.56;51.84;96071.38;5113204;27;20201;-72
2022/10/17 06:04:19;;;;;;;10.60;5.07;;;;;;;14.49;53.82;96086.66;5113281;28;20269;-71
2022/10/17 06:06:46;;;;;;;7.85;4.68;;;;;;;13.18;57.65;96101.75;5113083;28;20241;-71
2022/10/17 06:09:13;;;;;;;8.75;4.55;;;;;;;13.10;59.01;96101.34;5112921;28;20286;-71
2022/10/17 06:11:40;;;;;;;9.00;6.10;;;;;;;13.90;56.65;96099.69;5113236;28;20233;-70
2022/10/17 06:14:08;;;;;;;10.68;6.30;;;;;;;13.69;56.90;96101.31;5113235;28;20209;-71
2022/10/17 06:16:35;;;;;;;12.27;6.63;;;;;;;14.24;56.76;96093.59;5098822;27;20757;-71
2022/10/17 06:19:01;;;;;;;12.75;4.95;;;;;;;15.36;53.85;96088.38;5113268;28;20209;-71
2022/10/17 06:21:28;;;;;;;7.70;4.40;;;;;;;15.70;52.26;96086.78;5110735;28;20198;-71
2022/10/17 06:23:55;;;;;;;9.27;4.25;;;;;;;16.32;50.59;96104.28;5092482;28;20287;-71
2022/10/17 06:26:22;;;;;;;5.85;3.58;;;;;;;16.92;49.24;96103.22;5111434;28;20209;-71
2022/10/17 06:28:49;;;;;;;8.68;3.35;;;;;;;16.70;48.17;96108.97;5111993;28;20209;-71
2022/10/17 06:31:17;;;;;;;9.40;4.15;;;;;;;15.51;50.95;96111.66;5111933;28;20633;-71
2022/10/17 06:33:44;;;;;;;6.35;4.07;;;;;;;16.03;49.67;96106.94;5098109;28;20321;-71
2022/10/17 06:36:13;;;;;;;5.53;3.75;;;;;;;15.64;51.27;96117.00;5081016;28;20393;-70
2022/10/17 06:38:40;;;;;;;10.70;4.55;;;;;;;14.30;54.58;96126.97;5112777;28;20198;-71
2022/10/17 06:41:09;;;;;;;7.80;4.50;;;;;;;13.56;56.98;96123.97;5112534;28;20266;-71
2022/10/17 06:43:36;;;;;;;7.32;4.35;;;;;;;13.58;57.72;96127.19;5112676;28;20571;-71
2022/10/17 06:46:04;;;;;;;9.68;6.25;;;;;;;14.20;55.27;96138.97;5111930;28;20213;-71
2022/10/17 06:48:33;;;;;;;11.85;5.25;;;;;;;13.16;58.18;96142.88;5112622;28;20626;-71
2022/10/17 06:51:00;;;;;;;7.38;4.40;;;;;;;13.77;56.82;96130.53;5112378;28;20234;-71
2022/10/17 06:53:28;;;;;;;7.55;4.65;;;;;;;13.40;58.10;96137.94;5095798;28;20205;-71
2022/10/17 06:56:00;;;;;;;10.18;4.57;;;;;;;13.33;58.57;96132.13;5091540;28;20205;-71
2022/10/17 06:58:26;;;;;;;7.43;3.92;;;;;;;13.20;59.15;96135.72;5082360;28;20214;-71
2022/10/17 07:00:57;;;;;;;6.45;4.43;;;;;;;12.93;59.24;96143.91;5101685;28;20737;-70
2022/10/17 07:03:24;;;;;;;11.38;4.45;;;;;;;12.92;59.99;96134.13;5111753;28;20269;-70
2022/10/17 07:05:53;;;;;;;12.00;5.05;;;;;;;12.78;60.48;96136.88;5111462;28;20245;-70
2022/10/17 07:08:19;;;;;;;10.88;4.82;;;;;;;12.75;60.62;96135.56;5112134;28;20627;-70
2022/10/17 07:10:46;;;;;;;6.28;4.05;;;;;;;12.31;60.74;96127.22;5111715;28;20563;-72
2022/10/17 07:13:13;;;;;;;14.05;5.57;;;;;;;12.01;62.12;96134.84;5112230;28;20210;-71
2022/10/17 07:15:40;;;;;;;7.97;4.53;;;;;;;12.19;62.42;96129.63;5100638;28;20291;-71
2022/10/17 07:18:07;;;;;;;11.00;5.55;;;;;;;12.46;62.11;96135.06;5109842;28;20652;-71
2022/10/17 07:20:34;;;;;;;9.93;5.50;;;;;;;12.64;61.98;96142.31;5111892;28;20231;-72
2022/10/17 07:23:02;;;;;;;7.15;4.20;;;;;;;12.44;62.80;96137.28;5096247;28;20234;-71
2022/10/17 07:25:29;;;;;;;7.47;5.05;;;;;;;12.49;62.54;96128.22;5103533;28;20861;-71
2022/10/17 07:27:56;;;;;;;7.47;4.35;;;;;;;12.30;62.53;96128.34;5110793;28;20282;-71
2022/10/17 07:30:23;;;;;;;6.18;4.20;;;;;;;12.27;63.33;96145.25;5111025;28;20745;-71
2022/10/17 07:32:53;;;;;;;8.82;4.43;;;;;;;11.97;64.09;96144.69;5111622;28;20201;-71
2022/10/17 07:35:20;;;;;;;8.98;5.43;;;;;;;11.93;63.46;96140.16;5110041;28;20293;-71
2022/10/17 07:37:47;;;;;;;13.13;5.30;;;;;;;11.94;63.67;96139.88;5111116;28;20217;-71
2022/10/17 07:40:15;;;;;;;13.93;5.38;;;;;;;12.09;63.50;96145.03;5111484;28;20241;-71
2022/10/17 07:42:41;;;;;;;9.18;4.60;;;;;;;12.17;63.23;96148.94;5111299;28;20748;-71
2022/10/17 07:45:09;;;;;;;8.25;5.38;;;;;;;12.25;63.46;96139.31;5111417;28;20729;-71
2022/10/17 07:47:36;;;;;;;12.85;5.78;;;;;;;12.48;62.79;96149.19;5110802;28;20704;-72
2022/10/17 07:50:03;;;;;;;10.52;4.72;;;;;;;12.50;62.97;96136.09;5110501;28;20634;-71
2022/10/17 07:52:29;;;;;;;8.98;5.30;;;;;;;12.46;62.54;96145.94;5110796;28;20217;-72
2022/10/17 07:54:56;;;;;;;6.70;4.55;;;;;;;12.39;62.66;96145.56;5096361;28;20286;-72
2022/10/17 07:57:24;;;;;;;9.82;4.82;;;;;;;12.27;61.29;96153.41;5095033;28;20241;-70
2022/10/17 07:59:53;;;;;;;13.85;7.63;;;;;;;12.40;61.54;96149.88;5110890;28;20201;-71
2022/10/17 08:02:22;;;;;;;11.25;7.68;;;;;;;12.63;61.21;96150.78;5110846;28;20265;-71
2022/10/17 08:04:49;;;;;;;10.75;6.05;;;;;;;12.60;61.05;96146.75;5111349;28;20197;-72
2022/10/17 08:07:16;;;;;;;8.82;5.28;;;;;;;12.58;60.95;96132.66;5109399;28;20197;-70
2022/10/17 08:09:42;;;;;;;14.90;8.77;;;;;;;12.60;61.56;96138.59;5110630;28;20237;-70
2022/10/17 08:12:10;;;;;;;15.63;8.60;;;;;;;12.74;61.49;96136.66;5110576;28;20216;-70
2022/10/17 08:14:38;;;;;;;12.95;5.65;;;;;;;12.81;60.59;96133.56;5108265;28;20206;-70
2022/10/17 08:17:05;;;;;;;13.05;8.43;;;;;;;13.14;59.98;96121.41;5099892;28;20197;-71
2022/10/17 08:19:32;;;;;;;8.88;6.00;;;;;;;13.04;59.63;96124.34;5110789;28;20197;-70
2022/10/17 08:22:00;;;;;;;10.32;6.30;;;;;;;13.22;60.13;96109.00;5100588;28;20242;-71
2022/10/17 08:24:26;;;;;;;13.20;6.10;;;;;;;13.39;59.46;96120.00;5093297;28;20891;-71
2022/10/17 08:26:53;;;;;;;15.40;5.53;;;;;;;13.40;58.20;96121.63;5110532;28;20210;-70
2022/10/17 08:29:20;;;;;;;12.40;8.82;;;;;;;13.35;57.35;96119.03;5110514;28;20205;-71
2022/10/17 08:31:48;;;;;;;9.70;5.95;;;;;;;13.59;56.12;96128.81;5109795;28;20660;-71
2022/10/17 08:34:15;;;;;;;11.88;5.57;;;;;;;13.50;56.28;96126.84;5093104;28;20255;-70
2022/10/17 08:36:42;;;;;;;13.20;8.82;;;;;;;13.81;55.95;96115.16;5100907;28;20206;-70
2022/10/17 08:39:08;;;;;;;11.30;6.00;;;;;;;14.02;55.30;96127.16;5109665;28;20652;-71
2022/10/17 08:41:51;;;;;;;13.02;6.65;;;;;;;14.48;55.13;96115.06;5109897;28;20261;-71
2022/10/17 08:44:29;;;;;;;20.83;9.93;;;;;;;14.46;53.96;96111.84;5110676;28;20656;-71
2022/10/17 08:46:59;;;;;;;17.73;9.55;;;;;;;14.54;53.01;96121.97;5102812;28;20193;-71
2022/10/17 08:49:37;;;;;;;16.00;9.70;;;;;;;14.48;53.15;96123.25;5110381;28;20247;-71
2022/10/17 08:52:11;;;;;;;17.20;9.93;;;;;;;14.46;52.90;96122.75;5110040;28;20205;-72
2022/10/17 08:54:44;;;;;;;10.85;6.70;;;;;;;14.70;54.86;96114.97;5110357;28;20262;-72
2022/10/17 08:57:14;;;;;;;17.40;7.07;;;;;;;14.73;51.59;96119.78;5109511;28;20241;-72
2022/10/17 08:59:41;;;;;;;12.27;5.72;;;;;;;14.62;51.54;96123.13;5109989;28;20288;-72
2022/10/17 09:02:37;;;;;;;12.55;8.18;;;;;;;14.68;49.21;96128.09;5109713;28;20717;-72
2022/10/17 09:05:24;;;;;;;16.55;9.90;;;;;;;14.74;51.75;96124.13;5109807;28;20264;-71
2022/10/17 09:08:00;;;;;;;13.32;6.55;;;;;;;14.82;51.47;96117.88;5109903;28;20231;-71
2022/10/17 09:10:34;;;;;;;15.35;6.25;;;;;;;14.84;51.23;96117.56;5109785;28;20274;-71
2022/10/17 09:13:17;;;;;;;9.07;4.57;;;;;;;15.01;50.08;96116.78;5108918;28;20691;-72
2022/10/17 09:15:57;;;;;;;10.90;5.78;;;;;;;15.18;50.68;96119.53;5097553;28;20267;-71
2022/10/17 09:18:28;;;;;;;14.43;7.63;;;;;;;15.21;47.92;96124.34;5095980;28;20258;-71
2022/10/17 09:21:00;;;;;;;11.55;5.75;;;;;;;15.18;48.39;96114.06;5109330;28;20668;-71
2022/10/17 09:23:31;;;;;;;10.95;5.90;;;;;;;15.41;49.38;96112.00;5083403;28;20238;-71
2022/10/17 09:26:00;;;;;;;11.25;6.10;;;;;;;15.33;45.49;96119.06;5105313;28;20233;-71
2022/10/17 09:28:31;;;;;;;8.55;3.78;;;;;;;15.25;44.32;96120.66;5109306;28;20198;-71
2022/10/17 09:31:01;;;;;;;10.65;6.03;;;;;;;15.23;47.27;96119.38;5109333;28;20703;-71
2022/10/17 09:33:32;;;;;;;11.73;5.22;;;;;;;15.16;45.92;96121.78;5109271;28;20262;-71
2022/10/17 09:35:59;;;;;;;12.75;6.88;;;;;;;15.27;47.27;96112.16;5108959;28;20691;-72
2022/10/17 09:38:34;;;;;;;10.10;5.30;;;;;;;15.54;46.90;96111.84;5109574;28;20568;-71
2022/10/17 09:41:02;;;;;;;12.25;6.60;;;;;;;15.48;47.17;96110.38;5109447;28;20681;-71
2022/10/17 09:43:29;;;;;;;8.57;5.20;;;;;;;15.72;45.18;96106.34;5109119;28;20689;-71
2022/10/17 09:46:03;;;;;;;8.75;5.97;;;;;;;15.99;45.65;96106.78;5109084;28;20241;-71
2022/10/17 09:48:36;;;;;;;11.20;6.05;;;;;;;15.98;45.87;96109.88;5108618;28;20752;-71
2022/10/17 09:51:03;;;;;;;8.73;5.47;;;;;;;15.96;45.77;96101.19;5109213;28;20582;-71
2022/10/17 09:53:35;;;;;;;9.75;5.25;;;;;;;15.92;45.89;96100.22;5109260;28;20737;-71
2022/10/17 09:56:07;;;;;;;7.18;4.15;;;;;;;16.03;44.57;96096.00;5109470;28;20606;-71
2022/10/17 09:58:41;;;;;;;5.28;4.05;;;;;;;16.33;43.64;96094.94;5105889;28;20198;-71
2022/10/17 10:01:23;;;;;;;8.30;4.45;;;;;;;16.30;45.05;96095.59;5085048;28;20513;-71
2022/10/17 10:04:09;;;;;;;4.22;3.20;;;;;;;16.22;41.25;96085.50;5108670;28;20294;-71
2022/10/17 10:06:36;;;;;;;6.13;3.72;;;;;;;16.32;43.35;96087.88;5109227;28;20201;-71
2022/10/17 10:09:05;;;;;;;3.25;2.30;;;;;;;16.46;40.36;96086.84;5109182;28;20229;-71
2022/10/17 10:11:46;;;;;;;3.65;2.38;;;;;;;16.46;39.88;96086.84;5108758;28;20237;-71
2022/10/17 10:14:21;;;;;;;6.00;2.85;;;;;;;16.60;39.69;96076.47;5108724;28;20626;-71
2022/10/17 10:16:49;;;;;;;3.63;2.40;;;;;;;16.67;39.37;96082.28;5082588;28;20255;-71
2022/10/17 10:19:28;;;;;;;8.48;2.33;;;;;;;16.60;39.14;96095.63;5107536;28;20437;-71
2022/10/17 10:21:56;;;;;;;4.43;2.70;;;;;;;16.56;40.13;96081.00;5102179;28;20301;-71
2022/10/17 10:24:25;;;;;;;2.72;2.33;;;;;;;16.74;39.95;96084.47;5084307;28;20208;-72
2022/10/17 10:26:53;;;;;;;4.50;2.65;;;;;;;16.72;40.73;96073.84;5108975;28;20625;-71
2022/10/17 10:29:24;;;;;;;3.60;2.72;;;;;;;16.88;40.53;96066.69;5108930;28;20691;-72
2022/10/17 10:31:53;;;;;;;4.53;2.50;;;;;;;17.10;38.66;96070.22;5101984;28;20215;-76
2022/10/17 10:34:24;;;;;;;3.60;2.28;;;;;;;16.80;38.52;96064.81;5095004;28;20717;-72
2022/10/17 10:36:57;;;;;;;3.47;2.13;;;;;;;16.77;38.80;96070.94;5112282;28;20218;-71
2022/10/17 10:39:30;;;;;;;3.90;2.60;;;;;;;16.81;38.64;96063.66;5112730;28;20202;-71
2022/10/17 10:41:57;;;;;;;2.58;2.03;;;;;;;16.84;36.44;96057.53;5112613;28;20270;-71
2022/10/17 10:44:27;;;;;;;3.20;2.20;;;;;;;16.79;38.54;96055.00;5112704;28;20451;-71
2022/10/17 10:47:16;;;;;;;4.78;2.58;;;;;;;16.84;38.52;96054.78;5112459;28;20209;-71
2022/10/17 10:49:45;;;;;;;4.50;2.40;;;;;;;16.70;38.27;96051.50;5113048;28;20238;-71
2022/10/17 10:52:22;;;;;;;3.00;1.98;;;;;;;16.78;38.42;96045.19;5111582;28;20760;-71
2022/10/17 10:54:57;;;;;;;4.28;2.58;;;;;;;16.97;38.07;96036.50;5112345;28;20254;-70
2022/10/17 10:57:29;;;;;;;3.75;2.15;;;;;;;17.19;38.30;96049.06;5112454;28;20410;-70
2022/10/17 11:00:02;;;;;;;4.25;2.08;;;;;;;17.27;38.42;96053.66;5111519;28;20725;-70
2022/10/17 11:02:37;;;;;;;2.92;2.10;;;;;;;17.29;38.40;96043.16;5084911;28;20234;-72
2022/10/17 11:05:14;;;;;;;3.05;2.10;;;;;;;17.34;38.06;96034.75;5089288;28;20218;-72
2022/10/17 11:07:46;;;;;;;2.65;2.08;;;;;;;17.46;38.27;96031.25;5102486;28;20513;-71
2022/10/17 11:10:17;;;;;;;3.15;1.83;;;;;;;17.48;36.76;96024.31;5112394;28;20202;-71
2022/10/17 11:12:50;;;;;;;2.58;2.00;;;;;;;17.51;36.33;96026.34;5112424;28;20201;-73
2022/10/17 11:15:24;;;;;;;2.85;2.10;;;;;;;17.46;37.28;96023.03;5103173;28;20194;-72
2022/10/17 11:17:57;;;;;;;4.10;2.30;;;;;;;17.34;37.08;96030.09;5107433;28;20517;-70
2022/10/17 11:20:34;;;;;;;4.95;2.30;;;;;;;17.26;36.70;96024.66;5101786;28;20649;-76
2022/10/17 11:23:12;;;;;;;3.03;2.00;;;;;;;17.41;37.89;96024.03;5081734;28;20230;-72
2022/10/17 11:25:41;;;;;;;4.10;1.70;;;;;;;17.73;36.77;96023.28;5089819;28;20198;-70
2022/10/17 11:28:14;;;;;;;3.03;1.92;;;;;;;17.68;36.91;96023.47;5079454;28;20633;-70
2022/10/17 11:30:46;;;;;;;5.45;2.28;;;;;;;17.81;36.86;96012.53;5083333;28;20220;-71
2022/10/17 11:33:18;;;;;;;2.95;2.13;;;;;;;17.75;36.33;96012.78;5079435;28;20195;-71
2022/10/17 11:35:50;;;;;;;3.33;2.42;;;;;;;17.86;36.78;96006.84;5077954;28;20234;-72
2022/10/17 11:38:21;;;;;;;3.67;2.15;;;;;;;17.75;35.32;96012.78;5076286;28;20259;-71
2022/10/17 11:40:50;;;;;;;3.42;2.13;;;;;;;17.55;35.91;96019.06;5085448;28;20268;-71
2022/10/17 11:43:22;;;;;;;2.28;1.85;;;;;;;17.70;36.22;96015.72;5074071;28;20199;-71
2022/10/17 11:45:55;;;;;;;3.30;2.53;;;;;;;17.90;37.28;96008.59;5079698;28;20244;-72
2022/10/17 11:48:27;;;;;;;3.13;2.10;;;;;;;17.91;36.93;96017.56;5074496;28;20242;-71